sensor_id;sensor_type;location;lat;lon;timestamp;P1;durP1;ratioP1;P2;durP2;ratioP2
9854;SDS011;4966;48.112;9.282;2022-09-20T00:00:43;1.75;;;0.82;;
9854;SDS011;4966;48.112;9.282;2022-09-20T00:03:11;5.53;;;0.85;;
9854;SDS011;4966;48.112;9.282;2022-09-20T00:05:38;1.50;;;0.70;;
9854;SDS011;4966;48.112;9.282;2022-09-20T00:08:06;6.38;;;1.00;;
9854;SDS011;4966;48.112;9.282;2022-09-20T00:10:35;3.30;;;1.00;;
9854;SDS011;4966;48.112;9.282;2022-09-20T00:13:03;1.65;;;0.88;;
9854;SDS011;4966;48.112;9.282;2022-09-20T00:15:30;1.92;;;0.95;;
9854;SDS011;4966;48.112;9.282;2022-09-20T00:17:56;2.95;;;1.15;;
9854;SDS011;4966;48.112;9.282;2022-09-20T00:20:22;2.75;;;1.13;;
9854;SDS011;4966;48.112;9.282;2022-09-20T00:22:48;3.17;;;1.75;;
9854;SDS011;4966;48.112;9.282;2022-09-20T00:25:14;2.50;;;1.33;;
9854;SDS011;4966;48.112;9.282;2022-09-20T00:27:40;3.08;;;1.40;;
9854;SDS011;4966;48.112;9.282;2022-09-20T00:30:06;2.13;;;1.10;;
9854;SDS011;4966;48.112;9.282;2022-09-20T00:32:32;1.58;;;1.08;;
9854;SDS011;4966;48.112;9.282;2022-09-20T00:34:58;4.95;;;1.10;;
9854;SDS011;4966;48.112;9.282;2022-09-20T00:37:41;3.00;;;1.33;;
9854;SDS011;4966;48.112;9.282;2022-09-20T00:40:09;4.15;;;1.10;;
9854;SDS011;4966;48.112;9.282;2022-09-20T00:42:37;2.63;;;1.15;;
9854;SDS011;4966;48.112;9.282;2022-09-20T00:52:38;3.33;;;1.52;;
9854;SDS011;4966;48.112;9.282;2022-09-20T00:55:05;5.35;;;1.52;;
9854;SDS011;4966;48.112;9.282;2022-09-20T00:57:32;4.55;;;1.45;;
9854;SDS011;4966;48.112;9.282;2022-09-20T00:59:59;2.25;;;1.17;;
9854;SDS011;4966;48.112;9.282;2022-09-20T01:02:30;2.95;;;1.40;;
9854;SDS011;4966;48.112;9.282;2022-09-20T01:04:57;5.07;;;1.58;;
9854;SDS011;4966;48.112;9.282;2022-09-20T01:07:23;2.80;;;1.17;;
9854;SDS011;4966;48.112;9.282;2022-09-20T01:09:50;4.22;;;1.10;;
9854;SDS011;4966;48.112;9.282;2022-09-20T01:12:23;4.22;;;1.48;;
9854;SDS011;4966;48.112;9.282;2022-09-20T01:14:51;5.65;;;1.30;;
9854;SDS011;4966;48.112;9.282;2022-09-20T01:17:18;4.57;;;1.30;;
9854;SDS011;4966;48.112;9.282;2022-09-20T01:22:42;4.53;;;1.55;;
9854;SDS011;4966;48.112;9.282;2022-09-20T01:25:21;2.03;;;1.13;;
9854;SDS011;4966;48.112;9.282;2022-09-20T01:28:10;4.43;;;1.00;;
9854;SDS011;4966;48.112;9.282;2022-09-20T01:30:42;3.60;;;1.60;;
9854;SDS011;4966;48.112;9.282;2022-09-20T01:35:49;4.40;;;1.27;;
9854;SDS011;4966;48.112;9.282;2022-09-20T01:41:13;3.17;;;1.30;;
9854;SDS011;4966;48.112;9.282;2022-09-20T01:43:47;2.35;;;1.13;;
9854;SDS011;4966;48.112;9.282;2022-09-20T01:46:30;3.75;;;1.27;;
9854;SDS011;4966;48.112;9.282;2022-09-20T02:09:02;2.67;;;0.90;;
9854;SDS011;4966;48.112;9.282;2022-09-20T02:11:52;2.70;;;1.10;;
9854;SDS011;4966;48.112;9.282;2022-09-20T02:17:45;2.05;;;0.90;;
9854;SDS011;4966;48.112;9.282;2022-09-20T02:30:54;2.97;;;1.10;;
9854;SDS011;4966;48.112;9.282;2022-09-20T02:36:15;2.25;;;1.02;;
9854;SDS011;4966;48.112;9.282;2022-09-20T02:39:16;3.75;;;1.50;;
9854;SDS011;4966;48.112;9.282;2022-09-20T02:47:44;3.25;;;1.20;;
9854;SDS011;4966;48.112;9.282;2022-09-20T03:04:32;2.33;;;1.20;;
9854;SDS011;4966;48.112;9.282;2022-09-20T03:09:46;6.30;;;1.33;;
9854;SDS011;4966;48.112;9.282;2022-09-20T03:18:18;3.55;;;1.30;;
9854;SDS011;4966;48.112;9.282;2022-09-20T03:20:57;3.20;;;1.27;;
9854;SDS011;4966;48.112;9.282;2022-09-20T03:42:29;4.38;;;0.90;;
9854;SDS011;4966;48.112;9.282;2022-09-20T03:58:52;2.22;;;0.90;;
9854;SDS011;4966;48.112;9.282;2022-09-20T04:04:21;2.53;;;0.75;;
9854;SDS011;4966;48.112;9.282;2022-09-20T04:06:55;2.80;;;0.82;;
9854;SDS011;4966;48.112;9.282;2022-09-20T04:09:50;1.88;;;1.00;;
9854;SDS011;4966;48.112;9.282;2022-09-20T04:17:30;3.67;;;1.20;;
9854;SDS011;4966;48.112;9.282;2022-09-20T04:23:14;10.63;;;3.13;;
9854;SDS011;4966;48.112;9.282;2022-09-20T04:25:49;5.65;;;1.90;;
9854;SDS011;4966;48.112;9.282;2022-09-20T04:28:23;4.15;;;1.20;;
9854;SDS011;4966;48.112;9.282;2022-09-20T04:30:55;4.80;;;0.98;;
9854;SDS011;4966;48.112;9.282;2022-09-20T04:33:38;6.30;;;1.10;;
9854;SDS011;4966;48.112;9.282;2022-09-20T04:39:02;8.45;;;3.50;;
9854;SDS011;4966;48.112;9.282;2022-09-20T04:44:36;3.97;;;1.83;;
9854;SDS011;4966;48.112;9.282;2022-09-20T04:53:12;1.92;;;0.95;;
9854;SDS011;4966;48.112;9.282;2022-09-20T04:58:21;5.32;;;3.28;;
9854;SDS011;4966;48.112;9.282;2022-09-20T05:31:27;5.97;;;1.50;;
9854;SDS011;4966;48.112;9.282;2022-09-20T05:55:51;7.90;;;2.17;;
9854;SDS011;4966;48.112;9.282;2022-09-20T06:01:07;4.28;;;2.00;;
9854;SDS011;4966;48.112;9.282;2022-09-20T06:03:44;4.32;;;2.08;;
9854;SDS011;4966;48.112;9.282;2022-09-20T06:11:36;2.38;;;1.35;;
9854;SDS011;4966;48.112;9.282;2022-09-20T06:14:19;3.13;;;1.30;;
9854;SDS011;4966;48.112;9.282;2022-09-20T06:17:03;3.00;;;1.40;;
9854;SDS011;4966;48.112;9.282;2022-09-20T06:22:38;4.53;;;1.92;;
9854;SDS011;4966;48.112;9.282;2022-09-20T06:27:41;4.75;;;2.40;;
9854;SDS011;4966;48.112;9.282;2022-09-20T06:30:15;6.78;;;2.33;;
9854;SDS011;4966;48.112;9.282;2022-09-20T06:38:49;5.40;;;2.40;;
9854;SDS011;4966;48.112;9.282;2022-09-20T06:41:35;6.18;;;2.22;;
9854;SDS011;4966;48.112;9.282;2022-09-20T06:44:01;7.65;;;2.40;;
9854;SDS011;4966;48.112;9.282;2022-09-20T06:46:28;3.05;;;1.50;;
9854;SDS011;4966;48.112;9.282;2022-09-20T06:48:56;4.97;;;1.90;;
9854;SDS011;4966;48.112;9.282;2022-09-20T06:51:22;7.55;;;2.00;;
9854;SDS011;4966;48.112;9.282;2022-09-20T06:53:50;6.10;;;2.17;;
9854;SDS011;4966;48.112;9.282;2022-09-20T06:56:21;8.85;;;2.25;;
9854;SDS011;4966;48.112;9.282;2022-09-20T06:58:50;7.45;;;2.15;;
9854;SDS011;4966;48.112;9.282;2022-09-20T07:01:16;4.47;;;1.85;;
9854;SDS011;4966;48.112;9.282;2022-09-20T07:03:42;5.25;;;2.40;;
9854;SDS011;4966;48.112;9.282;2022-09-20T07:06:08;3.90;;;2.30;;
9854;SDS011;4966;48.112;9.282;2022-09-20T07:08:33;7.75;;;2.05;;
9854;SDS011;4966;48.112;9.282;2022-09-20T07:11:08;4.55;;;2.00;;
9854;SDS011;4966;48.112;9.282;2022-09-20T07:13:36;8.38;;;2.00;;
9854;SDS011;4966;48.112;9.282;2022-09-20T07:16:03;4.65;;;2.20;;
9854;SDS011;4966;48.112;9.282;2022-09-20T07:18:30;4.68;;;2.00;;
9854;SDS011;4966;48.112;9.282;2022-09-20T07:20:56;6.38;;;1.90;;
9854;SDS011;4966;48.112;9.282;2022-09-20T07:23:23;4.45;;;1.88;;
9854;SDS011;4966;48.112;9.282;2022-09-20T07:25:54;6.72;;;2.17;;
9854;SDS011;4966;48.112;9.282;2022-09-20T07:28:24;8.98;;;2.65;;
9854;SDS011;4966;48.112;9.282;2022-09-20T07:30:54;8.95;;;2.60;;
9854;SDS011;4966;48.112;9.282;2022-09-20T07:33:19;10.60;;;3.17;;
9854;SDS011;4966;48.112;9.282;2022-09-20T07:35:48;12.82;;;3.35;;
9854;SDS011;4966;48.112;9.282;2022-09-20T07:38:15;11.02;;;3.58;;
9854;SDS011;4966;48.112;9.282;2022-09-20T07:40:41;8.57;;;3.88;;
9854;SDS011;4966;48.112;9.282;2022-09-20T07:43:07;6.68;;;3.05;;
9854;SDS011;4966;48.112;9.282;2022-09-20T07:45:32;7.13;;;3.20;;
9854;SDS011;4966;48.112;9.282;2022-09-20T07:48:03;8.30;;;3.63;;
9854;SDS011;4966;48.112;9.282;2022-09-20T07:50:30;8.07;;;3.63;;
9854;SDS011;4966;48.112;9.282;2022-09-20T07:52:56;9.32;;;2.90;;
9854;SDS011;4966;48.112;9.282;2022-09-20T07:55:22;5.55;;;2.20;;
9854;SDS011;4966;48.112;9.282;2022-09-20T07:57:47;3.67;;;1.70;;
9854;SDS011;4966;48.112;9.282;2022-09-20T08:00:13;2.65;;;1.13;;
9854;SDS011;4966;48.112;9.282;2022-09-20T08:02:39;3.60;;;1.10;;
9854;SDS011;4966;48.112;9.282;2022-09-20T08:05:04;3.15;;;1.20;;
9854;SDS011;4966;48.112;9.282;2022-09-20T08:07:30;3.40;;;1.20;;
9854;SDS011;4966;48.112;9.282;2022-09-20T08:09:56;4.07;;;1.05;;
9854;SDS011;4966;48.112;9.282;2022-09-20T08:12:21;2.60;;;1.00;;
9854;SDS011;4966;48.112;9.282;2022-09-20T08:14:47;1.50;;;0.73;;
9854;SDS011;4966;48.112;9.282;2022-09-20T08:17:12;3.47;;;1.38;;
9854;SDS011;4966;48.112;9.282;2022-09-20T08:19:37;2.13;;;0.90;;
9854;SDS011;4966;48.112;9.282;2022-09-20T08:22:04;3.40;;;0.75;;
9854;SDS011;4966;48.112;9.282;2022-09-20T08:24:30;1.83;;;0.55;;
9854;SDS011;4966;48.112;9.282;2022-09-20T08:26:56;2.58;;;0.80;;
9854;SDS011;4966;48.112;9.282;2022-09-20T08:29:21;1.98;;;0.90;;
9854;SDS011;4966;48.112;9.282;2022-09-20T08:31:47;2.97;;;1.30;;
9854;SDS011;4966;48.112;9.282;2022-09-20T08:34:12;2.95;;;0.90;;
9854;SDS011;4966;48.112;9.282;2022-09-20T08:36:39;2.35;;;0.88;;
9854;SDS011;4966;48.112;9.282;2022-09-20T08:39:09;3.50;;;0.88;;
9854;SDS011;4966;48.112;9.282;2022-09-20T08:41:42;2.85;;;0.90;;
9854;SDS011;4966;48.112;9.282;2022-09-20T08:46:50;2.35;;;1.00;;
9854;SDS011;4966;48.112;9.282;2022-09-20T08:49:25;2.88;;;0.90;;
9854;SDS011;4966;48.112;9.282;2022-09-20T08:51:52;2.60;;;0.88;;
9854;SDS011;4966;48.112;9.282;2022-09-20T08:54:22;2.00;;;0.80;;
9854;SDS011;4966;48.112;9.282;2022-09-20T08:56:51;8.82;;;0.93;;
9854;SDS011;4966;48.112;9.282;2022-09-20T08:59:18;3.38;;;0.90;;
9854;SDS011;4966;48.112;9.282;2022-09-20T09:01:48;1.90;;;0.90;;
9854;SDS011;4966;48.112;9.282;2022-09-20T09:04:19;4.20;;;0.70;;
9854;SDS011;4966;48.112;9.282;2022-09-20T09:06:46;1.73;;;0.82;;
9854;SDS011;4966;48.112;9.282;2022-09-20T09:09:27;2.30;;;0.70;;
9854;SDS011;4966;48.112;9.282;2022-09-20T09:11:54;4.35;;;0.90;;
9854;SDS011;4966;48.112;9.282;2022-09-20T09:14:23;2.95;;;0.98;;
9854;SDS011;4966;48.112;9.282;2022-09-20T09:20:27;5.07;;;0.90;;
9854;SDS011;4966;48.112;9.282;2022-09-20T09:22:56;5.95;;;0.80;;
9854;SDS011;4966;48.112;9.282;2022-09-20T09:25:37;1.77;;;0.45;;
9854;SDS011;4966;48.112;9.282;2022-09-20T09:30:37;2.85;;;0.50;;
9854;SDS011;4966;48.112;9.282;2022-09-20T09:35:58;3.22;;;0.75;;
9854;SDS011;4966;48.112;9.282;2022-09-20T09:38:31;4.75;;;0.90;;
9854;SDS011;4966;48.112;9.282;2022-09-20T09:40:59;4.75;;;0.88;;
9854;SDS011;4966;48.112;9.282;2022-09-20T09:43:30;1.60;;;0.60;;
9854;SDS011;4966;48.112;9.282;2022-09-20T09:46:18;5.05;;;0.82;;
9854;SDS011;4966;48.112;9.282;2022-09-20T09:48:46;3.20;;;0.88;;
9854;SDS011;4966;48.112;9.282;2022-09-20T09:51:15;3.15;;;0.88;;
9854;SDS011;4966;48.112;9.282;2022-09-20T09:53:42;3.00;;;0.90;;
9854;SDS011;4966;48.112;9.282;2022-09-20T09:56:27;3.25;;;0.77;;
9854;SDS011;4966;48.112;9.282;2022-09-20T09:59:03;2.80;;;0.90;;
9854;SDS011;4966;48.112;9.282;2022-09-20T10:17:46;4.22;;;0.75;;
9854;SDS011;4966;48.112;9.282;2022-09-20T10:27:55;1.77;;;0.57;;
9854;SDS011;4966;48.112;9.282;2022-09-20T10:36:45;4.47;;;0.50;;
9854;SDS011;4966;48.112;9.282;2022-09-20T10:39:37;2.25;;;0.60;;
9854;SDS011;4966;48.112;9.282;2022-09-20T10:50:50;1.13;;;0.32;;
9854;SDS011;4966;48.112;9.282;2022-09-20T10:56:27;1.48;;;0.60;;
9854;SDS011;4966;48.112;9.282;2022-09-20T11:10:19;3.65;;;0.68;;
9854;SDS011;4966;48.112;9.282;2022-09-20T11:12:54;3.75;;;0.60;;
9854;SDS011;4966;48.112;9.282;2022-09-20T11:15:28;1.83;;;0.50;;
9854;SDS011;4966;48.112;9.282;2022-09-20T11:20:28;1.27;;;0.60;;
9854;SDS011;4966;48.112;9.282;2022-09-20T11:23:01;2.20;;;0.55;;
9854;SDS011;4966;48.112;9.282;2022-09-20T11:25:40;1.05;;;0.45;;
9854;SDS011;4966;48.112;9.282;2022-09-20T11:30:57;3.38;;;0.50;;
9854;SDS011;4966;48.112;9.282;2022-09-20T11:36:07;1.50;;;0.60;;
9854;SDS011;4966;48.112;9.282;2022-09-20T11:38:41;1.80;;;0.40;;
9854;SDS011;4966;48.112;9.282;2022-09-20T11:41:15;2.40;;;0.43;;
9854;SDS011;4966;48.112;9.282;2022-09-20T11:43:45;1.92;;;0.50;;
9854;SDS011;4966;48.112;9.282;2022-09-20T11:46:22;0.82;;;0.30;;
9854;SDS011;4966;48.112;9.282;2022-09-20T11:48:55;1.02;;;0.40;;
9854;SDS011;4966;48.112;9.282;2022-09-20T11:52:15;1.20;;;0.55;;
9854;SDS011;4966;48.112;9.282;2022-09-20T11:57:22;1.27;;;0.32;;
9854;SDS011;4966;48.112;9.282;2022-09-20T11:59:51;3.13;;;0.40;;
9854;SDS011;4966;48.112;9.282;2022-09-20T12:04:56;3.83;;;0.88;;
9854;SDS011;4966;48.112;9.282;2022-09-20T12:07:27;0.82;;;0.40;;
9854;SDS011;4966;48.112;9.282;2022-09-20T12:10:03;2.00;;;0.32;;
9854;SDS011;4966;48.112;9.282;2022-09-20T12:12:43;2.70;;;0.40;;
9854;SDS011;4966;48.112;9.282;2022-09-20T12:26:05;6.70;;;0.73;;
9854;SDS011;4966;48.112;9.282;2022-09-20T12:28:44;3.63;;;0.50;;
9854;SDS011;4966;48.112;9.282;2022-09-20T12:34:04;8.32;;;0.70;;
9854;SDS011;4966;48.112;9.282;2022-09-20T12:39:48;2.63;;;0.50;;
9854;SDS011;4966;48.112;9.282;2022-09-20T12:45:05;2.65;;;0.50;;
9854;SDS011;4966;48.112;9.282;2022-09-20T12:47:48;5.97;;;0.70;;
9854;SDS011;4966;48.112;9.282;2022-09-20T12:50:16;2.22;;;0.30;;
9854;SDS011;4966;48.112;9.282;2022-09-20T12:53:03;2.35;;;0.50;;
9854;SDS011;4966;48.112;9.282;2022-09-20T12:55:39;2.38;;;0.50;;
9854;SDS011;4966;48.112;9.282;2022-09-20T13:11:20;1.65;;;0.32;;
9854;SDS011;4966;48.112;9.282;2022-09-20T13:19:33;0.95;;;0.50;;
9854;SDS011;4966;48.112;9.282;2022-09-20T13:24:42;2.17;;;0.52;;
9854;SDS011;4966;48.112;9.282;2022-09-20T13:27:11;1.50;;;0.50;;
9854;SDS011;4966;48.112;9.282;2022-09-20T13:29:41;1.67;;;0.40;;
9854;SDS011;4966;48.112;9.282;2022-09-20T13:32:15;1.42;;;0.40;;
9854;SDS011;4966;48.112;9.282;2022-09-20T13:35:04;6.35;;;0.70;;
9854;SDS011;4966;48.112;9.282;2022-09-20T13:37:30;3.25;;;0.70;;
9854;SDS011;4966;48.112;9.282;2022-09-20T13:39:56;2.35;;;0.70;;
9854;SDS011;4966;48.112;9.282;2022-09-20T13:42:22;3.25;;;0.50;;
9854;SDS011;4966;48.112;9.282;2022-09-20T13:44:48;3.88;;;0.50;;
9854;SDS011;4966;48.112;9.282;2022-09-20T13:47:20;1.33;;;0.43;;
9854;SDS011;4966;48.112;9.282;2022-09-20T13:49:46;4.95;;;0.82;;
9854;SDS011;4966;48.112;9.282;2022-09-20T13:52:19;1.73;;;0.50;;
9854;SDS011;4966;48.112;9.282;2022-09-20T13:54:47;2.63;;;0.52;;
9854;SDS011;4966;48.112;9.282;2022-09-20T13:57:17;2.35;;;0.70;;
9854;SDS011;4966;48.112;9.282;2022-09-20T13:59:46;3.28;;;0.45;;
9854;SDS011;4966;48.112;9.282;2022-09-20T14:04:46;2.50;;;0.70;;
9854;SDS011;4966;48.112;9.282;2022-09-20T14:07:14;1.63;;;0.50;;
9854;SDS011;4966;48.112;9.282;2022-09-20T14:09:41;2.28;;;0.70;;
9854;SDS011;4966;48.112;9.282;2022-09-20T14:12:09;2.00;;;0.63;;
9854;SDS011;4966;48.112;9.282;2022-09-20T14:14:36;2.47;;;0.60;;
9854;SDS011;4966;48.112;9.282;2022-09-20T14:17:03;2.55;;;0.60;;
9854;SDS011;4966;48.112;9.282;2022-09-20T14:19:32;3.15;;;0.60;;
9854;SDS011;4966;48.112;9.282;2022-09-20T14:22:04;2.55;;;0.50;;
9854;SDS011;4966;48.112;9.282;2022-09-20T14:24:31;9.93;;;1.15;;
9854;SDS011;4966;48.112;9.282;2022-09-20T14:29:42;1.58;;;0.47;;
9854;SDS011;4966;48.112;9.282;2022-09-20T14:39:55;1.75;;;0.60;;
9854;SDS011;4966;48.112;9.282;2022-09-20T14:44:51;3.20;;;0.70;;
9854;SDS011;4966;48.112;9.282;2022-09-20T14:47:28;2.58;;;0.57;;
9854;SDS011;4966;48.112;9.282;2022-09-20T14:50:02;1.80;;;0.60;;
9854;SDS011;4966;48.112;9.282;2022-09-20T14:52:35;1.58;;;0.50;;
9854;SDS011;4966;48.112;9.282;2022-09-20T14:57:33;2.03;;;0.45;;
9854;SDS011;4966;48.112;9.282;2022-09-20T15:00:03;4.93;;;0.88;;
9854;SDS011;4966;48.112;9.282;2022-09-20T15:02:33;6.47;;;0.60;;
9854;SDS011;4966;48.112;9.282;2022-09-20T15:05:00;4.65;;;0.47;;
9854;SDS011;4966;48.112;9.282;2022-09-20T15:07:26;4.38;;;0.57;;
9854;SDS011;4966;48.112;9.282;2022-09-20T15:09:51;3.15;;;0.70;;
9854;SDS011;4966;48.112;9.282;2022-09-20T15:12:18;1.17;;;0.50;;
9854;SDS011;4966;48.112;9.282;2022-09-20T15:14:44;4.63;;;1.38;;
9854;SDS011;4966;48.112;9.282;2022-09-20T15:17:17;2.25;;;0.80;;
9854;SDS011;4966;48.112;9.282;2022-09-20T15:19:44;3.80;;;0.57;;
9854;SDS011;4966;48.112;9.282;2022-09-20T15:22:11;1.25;;;0.63;;
9854;SDS011;4966;48.112;9.282;2022-09-20T15:24:38;1.88;;;0.52;;
9854;SDS011;4966;48.112;9.282;2022-09-20T15:27:04;4.53;;;0.68;;
9854;SDS011;4966;48.112;9.282;2022-09-20T15:29:29;2.22;;;0.60;;
9854;SDS011;4966;48.112;9.282;2022-09-20T15:31:55;2.75;;;0.50;;
9854;SDS011;4966;48.112;9.282;2022-09-20T15:34:20;1.23;;;0.40;;
9854;SDS011;4966;48.112;9.282;2022-09-20T15:36:46;3.88;;;0.70;;
9854;SDS011;4966;48.112;9.282;2022-09-20T15:39:12;1.80;;;0.60;;
9854;SDS011;4966;48.112;9.282;2022-09-20T15:41:38;1.55;;;0.50;;
9854;SDS011;4966;48.112;9.282;2022-09-20T15:44:04;4.55;;;0.70;;
9854;SDS011;4966;48.112;9.282;2022-09-20T15:46:30;2.30;;;0.60;;
9854;SDS011;4966;48.112;9.282;2022-09-20T15:48:56;5.40;;;0.65;;
9854;SDS011;4966;48.112;9.282;2022-09-20T15:51:24;3.55;;;0.50;;
9854;SDS011;4966;48.112;9.282;2022-09-20T15:53:55;1.80;;;0.70;;
9854;SDS011;4966;48.112;9.282;2022-09-20T15:56:31;5.45;;;0.82;;
9854;SDS011;4966;48.112;9.282;2022-09-20T15:59:05;1.45;;;0.60;;
9854;SDS011;4966;48.112;9.282;2022-09-20T16:04:08;3.42;;;0.63;;
9854;SDS011;4966;48.112;9.282;2022-09-20T16:06:35;5.35;;;0.60;;
9854;SDS011;4966;48.112;9.282;2022-09-20T16:09:02;4.05;;;1.77;;
9854;SDS011;4966;48.112;9.282;2022-09-20T16:11:28;1.90;;;0.70;;
9854;SDS011;4966;48.112;9.282;2022-09-20T16:13:54;1.67;;;0.55;;
9854;SDS011;4966;48.112;9.282;2022-09-20T16:16:21;3.35;;;0.90;;
9854;SDS011;4966;48.112;9.282;2022-09-20T16:18:48;3.20;;;1.33;;
9854;SDS011;4966;48.112;9.282;2022-09-20T16:21:32;4.65;;;1.35;;
9854;SDS011;4966;48.112;9.282;2022-09-20T16:23:58;3.92;;;1.33;;
9854;SDS011;4966;48.112;9.282;2022-09-20T16:26:24;10.52;;;2.33;;
9854;SDS011;4966;48.112;9.282;2022-09-20T16:28:51;5.68;;;1.35;;
9854;SDS011;4966;48.112;9.282;2022-09-20T16:31:28;2.65;;;1.38;;
9854;SDS011;4966;48.112;9.282;2022-09-20T16:33:57;2.60;;;1.23;;
9854;SDS011;4966;48.112;9.282;2022-09-20T16:36:24;6.75;;;1.65;;
9854;SDS011;4966;48.112;9.282;2022-09-20T16:38:50;5.43;;;1.95;;
9854;SDS011;4966;48.112;9.282;2022-09-20T16:41:15;6.22;;;2.50;;
9854;SDS011;4966;48.112;9.282;2022-09-20T16:43:41;5.82;;;2.08;;
9854;SDS011;4966;48.112;9.282;2022-09-20T16:46:06;4.07;;;2.30;;
9854;SDS011;4966;48.112;9.282;2022-09-20T16:48:33;5.97;;;2.28;;
9854;SDS011;4966;48.112;9.282;2022-09-20T16:50:59;3.95;;;1.85;;
9854;SDS011;4966;48.112;9.282;2022-09-20T16:53:25;5.75;;;2.35;;
9854;SDS011;4966;48.112;9.282;2022-09-20T16:55:51;9.77;;;3.25;;
9854;SDS011;4966;48.112;9.282;2022-09-20T16:58:25;4.72;;;1.85;;
9854;SDS011;4966;48.112;9.282;2022-09-20T17:00:52;1.70;;;0.90;;
9854;SDS011;4966;48.112;9.282;2022-09-20T17:03:18;10.02;;;0.85;;
9854;SDS011;4966;48.112;9.282;2022-09-20T17:05:44;1.88;;;0.80;;
9854;SDS011;4966;48.112;9.282;2022-09-20T17:08:09;2.55;;;0.82;;
9854;SDS011;4966;48.112;9.282;2022-09-20T17:10:35;5.88;;;0.70;;
9854;SDS011;4966;48.112;9.282;2022-09-20T17:13:00;1.90;;;0.80;;
9854;SDS011;4966;48.112;9.282;2022-09-20T17:15:27;6.57;;;1.02;;
9854;SDS011;4966;48.112;9.282;2022-09-20T17:17:52;4.30;;;1.13;;
9854;SDS011;4966;48.112;9.282;2022-09-20T17:20:17;2.53;;;0.88;;
9854;SDS011;4966;48.112;9.282;2022-09-20T17:22:43;1.77;;;0.77;;
9854;SDS011;4966;48.112;9.282;2022-09-20T17:25:08;7.85;;;0.75;;
9854;SDS011;4966;48.112;9.282;2022-09-20T17:27:33;2.55;;;1.00;;
9854;SDS011;4966;48.112;9.282;2022-09-20T17:30:02;3.10;;;1.00;;
9854;SDS011;4966;48.112;9.282;2022-09-20T17:32:28;3.60;;;0.90;;
9854;SDS011;4966;48.112;9.282;2022-09-20T17:34:53;2.60;;;0.85;;
9854;SDS011;4966;48.112;9.282;2022-09-20T17:37:19;2.13;;;0.82;;
9854;SDS011;4966;48.112;9.282;2022-09-20T17:39:44;4.32;;;1.02;;
9854;SDS011;4966;48.112;9.282;2022-09-20T17:42:10;3.00;;;0.90;;
9854;SDS011;4966;48.112;9.282;2022-09-20T17:44:35;4.00;;;0.82;;
9854;SDS011;4966;48.112;9.282;2022-09-20T17:47:01;5.03;;;1.10;;
9854;SDS011;4966;48.112;9.282;2022-09-20T17:49:27;1.90;;;0.88;;
9854;SDS011;4966;48.112;9.282;2022-09-20T17:51:54;6.60;;;1.00;;
9854;SDS011;4966;48.112;9.282;2022-09-20T17:54:20;4.05;;;1.50;;
9854;SDS011;4966;48.112;9.282;2022-09-20T17:56:48;10.60;;;5.45;;
9854;SDS011;4966;48.112;9.282;2022-09-20T17:59:15;8.23;;;5.00;;
9854;SDS011;4966;48.112;9.282;2022-09-20T18:01:42;2.80;;;1.30;;
9854;SDS011;4966;48.112;9.282;2022-09-20T18:04:09;6.68;;;2.42;;
9854;SDS011;4966;48.112;9.282;2022-09-20T18:06:36;10.30;;;5.25;;
9854;SDS011;4966;48.112;9.282;2022-09-20T18:09:06;4.07;;;1.80;;
9854;SDS011;4966;48.112;9.282;2022-09-20T18:11:34;4.25;;;1.20;;
9854;SDS011;4966;48.112;9.282;2022-09-20T18:14:02;4.35;;;0.90;;
9854;SDS011;4966;48.112;9.282;2022-09-20T18:16:29;3.13;;;1.00;;
9854;SDS011;4966;48.112;9.282;2022-09-20T18:18:58;8.25;;;1.20;;
9854;SDS011;4966;48.112;9.282;2022-09-20T18:21:25;2.72;;;0.95;;
9854;SDS011;4966;48.112;9.282;2022-09-20T18:23:52;3.53;;;1.55;;
9854;SDS011;4966;48.112;9.282;2022-09-20T18:26:19;3.97;;;1.95;;
9854;SDS011;4966;48.112;9.282;2022-09-20T18:28:50;7.20;;;1.48;;
9854;SDS011;4966;48.112;9.282;2022-09-20T18:31:20;2.67;;;1.15;;
9854;SDS011;4966;48.112;9.282;2022-09-20T18:36:19;2.55;;;1.30;;
9854;SDS011;4966;48.112;9.282;2022-09-20T18:38:44;6.57;;;1.17;;
9854;SDS011;4966;48.112;9.282;2022-09-20T18:41:10;3.92;;;1.02;;
9854;SDS011;4966;48.112;9.282;2022-09-20T18:43:38;5.95;;;2.08;;
9854;SDS011;4966;48.112;9.282;2022-09-20T18:46:07;2.53;;;1.00;;
9854;SDS011;4966;48.112;9.282;2022-09-20T18:48:34;2.60;;;1.05;;
9854;SDS011;4966;48.112;9.282;2022-09-20T18:51:03;2.78;;;1.08;;
9854;SDS011;4966;48.112;9.282;2022-09-20T18:53:38;4.03;;;1.60;;
9854;SDS011;4966;48.112;9.282;2022-09-20T18:56:07;2.70;;;0.90;;
9854;SDS011;4966;48.112;9.282;2022-09-20T18:58:39;3.28;;;1.08;;
9854;SDS011;4966;48.112;9.282;2022-09-20T19:01:15;1.60;;;0.80;;
9854;SDS011;4966;48.112;9.282;2022-09-20T19:04:07;3.75;;;0.88;;
9854;SDS011;4966;48.112;9.282;2022-09-20T19:18:01;5.50;;;1.08;;
9854;SDS011;4966;48.112;9.282;2022-09-20T19:26:21;3.28;;;1.27;;
9854;SDS011;4966;48.112;9.282;2022-09-20T19:28:51;6.18;;;1.35;;
9854;SDS011;4966;48.112;9.282;2022-09-20T19:31:26;5.20;;;1.65;;
9854;SDS011;4966;48.112;9.282;2022-09-20T19:33:54;7.68;;;1.67;;
9854;SDS011;4966;48.112;9.282;2022-09-20T19:36:21;3.20;;;1.15;;
9854;SDS011;4966;48.112;9.282;2022-09-20T19:47:28;1.60;;;0.90;;
9854;SDS011;4966;48.112;9.282;2022-09-20T19:52:52;3.38;;;1.25;;
9854;SDS011;4966;48.112;9.282;2022-09-20T19:55:18;6.85;;;1.30;;
9854;SDS011;4966;48.112;9.282;2022-09-20T19:57:44;2.85;;;1.33;;
9854;SDS011;4966;48.112;9.282;2022-09-20T20:00:12;4.28;;;1.92;;
9854;SDS011;4966;48.112;9.282;2022-09-20T20:02:39;4.07;;;2.03;;
9854;SDS011;4966;48.112;9.282;2022-09-20T20:05:06;5.85;;;1.90;;
9854;SDS011;4966;48.112;9.282;2022-09-20T20:07:37;2.85;;;1.35;;
9854;SDS011;4966;48.112;9.282;2022-09-20T20:15:38;5.53;;;1.90;;
9854;SDS011;4966;48.112;9.282;2022-09-20T20:18:34;8.73;;;1.60;;
9854;SDS011;4966;48.112;9.282;2022-09-20T20:21:12;5.28;;;1.92;;
9854;SDS011;4966;48.112;9.282;2022-09-20T20:26:31;23.48;;;9.50;;
9854;SDS011;4966;48.112;9.282;2022-09-20T20:28:57;6.20;;;2.97;;
9854;SDS011;4966;48.112;9.282;2022-09-20T20:31:22;5.20;;;2.08;;
9854;SDS011;4966;48.112;9.282;2022-09-20T20:33:47;3.58;;;2.00;;
9854;SDS011;4966;48.112;9.282;2022-09-20T20:36:14;5.88;;;2.28;;
9854;SDS011;4966;48.112;9.282;2022-09-20T20:38:41;6.07;;;3.10;;
9854;SDS011;4966;48.112;9.282;2022-09-20T20:41:14;11.30;;;2.92;;
9854;SDS011;4966;48.112;9.282;2022-09-20T20:43:41;5.60;;;2.80;;
9854;SDS011;4966;48.112;9.282;2022-09-20T20:46:08;6.10;;;3.00;;
9854;SDS011;4966;48.112;9.282;2022-09-20T20:48:35;3.38;;;1.83;;
9854;SDS011;4966;48.112;9.282;2022-09-20T20:53:32;4.07;;;2.30;;
9854;SDS011;4966;48.112;9.282;2022-09-20T20:56:03;9.05;;;2.00;;
9854;SDS011;4966;48.112;9.282;2022-09-20T20:58:34;5.22;;;2.88;;
9854;SDS011;4966;48.112;9.282;2022-09-20T21:01:09;7.45;;;2.05;;
9854;SDS011;4966;48.112;9.282;2022-09-20T21:03:42;4.40;;;1.98;;
9854;SDS011;4966;48.112;9.282;2022-09-20T21:06:11;6.00;;;1.60;;
9854;SDS011;4966;48.112;9.282;2022-09-20T21:08:38;5.25;;;1.70;;
9854;SDS011;4966;48.112;9.282;2022-09-20T21:11:09;7.25;;;1.55;;
9854;SDS011;4966;48.112;9.282;2022-09-20T21:13:37;4.03;;;2.05;;
9854;SDS011;4966;48.112;9.282;2022-09-20T21:16:07;3.63;;;2.22;;
9854;SDS011;4966;48.112;9.282;2022-09-20T21:18:34;5.95;;;2.05;;
9854;SDS011;4966;48.112;9.282;2022-09-20T21:21:00;6.78;;;2.40;;
9854;SDS011;4966;48.112;9.282;2022-09-20T21:23:27;5.72;;;2.10;;
9854;SDS011;4966;48.112;9.282;2022-09-20T21:28:32;4.15;;;1.70;;
9854;SDS011;4966;48.112;9.282;2022-09-20T21:30:59;3.45;;;1.55;;
9854;SDS011;4966;48.112;9.282;2022-09-20T21:33:24;6.65;;;1.95;;
9854;SDS011;4966;48.112;9.282;2022-09-20T21:35:50;6.60;;;1.83;;
9854;SDS011;4966;48.112;9.282;2022-09-20T21:38:16;4.57;;;1.50;;
9854;SDS011;4966;48.112;9.282;2022-09-20T21:40:42;4.28;;;1.60;;
9854;SDS011;4966;48.112;9.282;2022-09-20T21:43:07;4.40;;;1.80;;
9854;SDS011;4966;48.112;9.282;2022-09-20T21:45:33;4.15;;;1.40;;
9854;SDS011;4966;48.112;9.282;2022-09-20T21:47:58;3.75;;;1.30;;
9854;SDS011;4966;48.112;9.282;2022-09-20T21:50:24;4.45;;;1.65;;
9854;SDS011;4966;48.112;9.282;2022-09-20T21:52:50;2.20;;;1.30;;
9854;SDS011;4966;48.112;9.282;2022-09-20T21:55:15;5.30;;;1.30;;
9854;SDS011;4966;48.112;9.282;2022-09-20T21:57:41;5.25;;;1.35;;
9854;SDS011;4966;48.112;9.282;2022-09-20T22:00:06;5.38;;;1.70;;
9854;SDS011;4966;48.112;9.282;2022-09-20T22:02:32;4.40;;;1.13;;
9854;SDS011;4966;48.112;9.282;2022-09-20T22:04:59;4.07;;;1.30;;
9854;SDS011;4966;48.112;9.282;2022-09-20T22:07:24;2.80;;;1.27;;